sensor_id;sensor_type;location;lat;lon;timestamp;P1;durP1;ratioP1;P2;durP2;ratioP2
7969;SDS011;4030;52.362;9.206;2022-08-18T00:02:06;2.55;;;2.35;;
7969;SDS011;4030;52.362;9.206;2022-08-18T00:04:37;3.55;;;2.92;;
7969;SDS011;4030;52.362;9.206;2022-08-18T00:07:04;3.30;;;3.00;;
7969;SDS011;4030;52.362;9.206;2022-08-18T00:09:37;3.25;;;2.95;;
7969;SDS011;4030;52.362;9.206;2022-08-18T00:12:06;2.90;;;2.67;;
7969;SDS011;4030;52.362;9.206;2022-08-18T00:14:59;3.38;;;2.97;;
7969;SDS011;4030;52.362;9.206;2022-08-18T00:17:30;3.10;;;2.80;;
7969;SDS011;4030;52.362;9.206;2022-08-18T00:19:57;3.30;;;2.97;;
7969;SDS011;4030;52.362;9.206;2022-08-18T00:22:23;3.20;;;2.90;;
7969;SDS011;4030;52.362;9.206;2022-08-18T00:24:51;3.53;;;2.80;;
7969;SDS011;4030;52.362;9.206;2022-08-18T00:27:20;3.20;;;2.90;;
7969;SDS011;4030;52.362;9.206;2022-08-18T00:29:53;3.10;;;2.80;;
7969;SDS011;4030;52.362;9.206;2022-08-18T00:32:26;2.95;;;2.75;;
7969;SDS011;4030;52.362;9.206;2022-08-18T00:35:06;3.50;;;3.20;;
7969;SDS011;4030;52.362;9.206;2022-08-18T00:37:45;3.35;;;3.05;;
7969;SDS011;4030;52.362;9.206;2022-08-18T00:40:14;2.90;;;2.70;;
7969;SDS011;4030;52.362;9.206;2022-08-18T00:42:47;3.50;;;3.20;;
7969;SDS011;4030;52.362;9.206;2022-08-18T00:45:18;3.50;;;3.20;;
7969;SDS011;4030;52.362;9.206;2022-08-18T00:47:50;3.40;;;3.10;;
7969;SDS011;4030;52.362;9.206;2022-08-18T00:50:21;3.40;;;3.10;;
7969;SDS011;4030;52.362;9.206;2022-08-18T00:53:14;3.45;;;3.15;;
7969;SDS011;4030;52.362;9.206;2022-08-18T00:55:57;3.63;;;3.33;;
7969;SDS011;4030;52.362;9.206;2022-08-18T00:58:37;4.00;;;3.70;;
7969;SDS011;4030;52.362;9.206;2022-08-18T01:01:11;3.97;;;3.58;;
7969;SDS011;4030;52.362;9.206;2022-08-18T01:03:38;3.85;;;3.50;;
7969;SDS011;4030;52.362;9.206;2022-08-18T01:06:21;4.13;;;3.70;;
7969;SDS011;4030;52.362;9.206;2022-08-18T01:08:56;3.85;;;3.55;;
7969;SDS011;4030;52.362;9.206;2022-08-18T01:11:22;3.70;;;3.40;;
7969;SDS011;4030;52.362;9.206;2022-08-18T01:13:49;3.97;;;3.58;;
7969;SDS011;4030;52.362;9.206;2022-08-18T01:16:15;4.07;;;3.78;;
7969;SDS011;4030;52.362;9.206;2022-08-18T01:19:00;4.00;;;3.70;;
7969;SDS011;4030;52.362;9.206;2022-08-18T01:21:46;4.10;;;3.72;;
7969;SDS011;4030;52.362;9.206;2022-08-18T01:24:35;4.10;;;3.70;;
7969;SDS011;4030;52.362;9.206;2022-08-18T01:27:34;3.90;;;3.60;;
7969;SDS011;4030;52.362;9.206;2022-08-18T01:30:06;3.85;;;3.55;;
7969;SDS011;4030;52.362;9.206;2022-08-18T01:32:36;4.10;;;3.70;;
7969;SDS011;4030;52.362;9.206;2022-08-18T01:35:04;4.47;;;4.00;;
7969;SDS011;4030;52.362;9.206;2022-08-18T01:37:33;5.18;;;3.70;;
7969;SDS011;4030;52.362;9.206;2022-08-18T01:40:00;3.97;;;3.67;;
7969;SDS011;4030;52.362;9.206;2022-08-18T01:42:29;4.55;;;3.72;;
7969;SDS011;4030;52.362;9.206;2022-08-18T01:44:55;3.90;;;3.60;;
7969;SDS011;4030;52.362;9.206;2022-08-18T01:47:21;3.75;;;3.45;;
7969;SDS011;4030;52.362;9.206;2022-08-18T01:49:47;3.97;;;3.60;;
7969;SDS011;4030;52.362;9.206;2022-08-18T01:52:15;5.78;;;3.95;;
7969;SDS011;4030;52.362;9.206;2022-08-18T01:54:44;4.22;;;3.92;;
7969;SDS011;4030;52.362;9.206;2022-08-18T01:57:12;3.80;;;3.50;;
7969;SDS011;4030;52.362;9.206;2022-08-18T01:59:38;4.15;;;3.85;;
7969;SDS011;4030;52.362;9.206;2022-08-18T02:02:06;4.07;;;3.72;;
7969;SDS011;4030;52.362;9.206;2022-08-18T02:04:33;3.83;;;3.53;;
7969;SDS011;4030;52.362;9.206;2022-08-18T02:07:00;3.75;;;3.40;;
7969;SDS011;4030;52.362;9.206;2022-08-18T02:09:27;3.70;;;3.40;;
7969;SDS011;4030;52.362;9.206;2022-08-18T02:11:53;3.92;;;3.63;;
7969;SDS011;4030;52.362;9.206;2022-08-18T02:14:20;4.20;;;3.80;;
7969;SDS011;4030;52.362;9.206;2022-08-18T02:16:47;3.75;;;3.47;;
7969;SDS011;4030;52.362;9.206;2022-08-18T02:19:12;4.07;;;3.78;;
7969;SDS011;4030;52.362;9.206;2022-08-18T02:21:38;4.55;;;4.15;;
7969;SDS011;4030;52.362;9.206;2022-08-18T02:24:04;4.00;;;3.60;;
7969;SDS011;4030;52.362;9.206;2022-08-18T02:26:30;4.18;;;3.65;;
7969;SDS011;4030;52.362;9.206;2022-08-18T02:28:56;4.35;;;3.95;;
7969;SDS011;4030;52.362;9.206;2022-08-18T02:31:23;4.13;;;3.83;;
7969;SDS011;4030;52.362;9.206;2022-08-18T02:33:50;4.07;;;3.67;;
7969;SDS011;4030;52.362;9.206;2022-08-18T02:36:16;4.18;;;3.88;;
7969;SDS011;4030;52.362;9.206;2022-08-18T02:38:42;4.30;;;3.92;;
7969;SDS011;4030;52.362;9.206;2022-08-18T02:41:09;4.50;;;4.10;;
7969;SDS011;4030;52.362;9.206;2022-08-18T02:43:38;3.88;;;3.58;;
7969;SDS011;4030;52.362;9.206;2022-08-18T02:46:06;3.95;;;3.65;;
7969;SDS011;4030;52.362;9.206;2022-08-18T02:48:33;4.05;;;3.75;;
7969;SDS011;4030;52.362;9.206;2022-08-18T02:51:09;4.10;;;3.80;;
7969;SDS011;4030;52.362;9.206;2022-08-18T02:53:39;4.13;;;3.80;;
7969;SDS011;4030;52.362;9.206;2022-08-18T02:56:12;4.15;;;3.85;;
7969;SDS011;4030;52.362;9.206;2022-08-18T02:58:47;4.10;;;3.80;;
7969;SDS011;4030;52.362;9.206;2022-08-18T03:01:17;4.13;;;3.80;;
7969;SDS011;4030;52.362;9.206;2022-08-18T03:03:48;3.90;;;3.60;;
7969;SDS011;4030;52.362;9.206;2022-08-18T03:06:15;4.20;;;3.80;;
7969;SDS011;4030;52.362;9.206;2022-08-18T03:08:42;3.90;;;3.60;;
7969;SDS011;4030;52.362;9.206;2022-08-18T03:11:12;4.10;;;3.80;;
7969;SDS011;4030;52.362;9.206;2022-08-18T03:13:40;3.60;;;3.30;;
7969;SDS011;4030;52.362;9.206;2022-08-18T03:16:06;4.00;;;3.65;;
7969;SDS011;4030;52.362;9.206;2022-08-18T03:18:32;3.83;;;3.53;;
7969;SDS011;4030;52.362;9.206;2022-08-18T03:21:03;3.97;;;3.67;;
7969;SDS011;4030;52.362;9.206;2022-08-18T03:23:34;3.85;;;3.50;;
7969;SDS011;4030;52.362;9.206;2022-08-18T03:26:00;3.90;;;3.60;;
7969;SDS011;4030;52.362;9.206;2022-08-18T03:28:26;3.97;;;3.67;;
7969;SDS011;4030;52.362;9.206;2022-08-18T03:30:53;3.80;;;3.50;;
7969;SDS011;4030;52.362;9.206;2022-08-18T03:33:19;3.90;;;3.60;;
7969;SDS011;4030;52.362;9.206;2022-08-18T03:35:45;3.70;;;3.40;;
7969;SDS011;4030;52.362;9.206;2022-08-18T03:38:11;3.70;;;3.40;;
7969;SDS011;4030;52.362;9.206;2022-08-18T03:40:36;3.85;;;3.25;;
7969;SDS011;4030;52.362;9.206;2022-08-18T03:43:03;3.92;;;3.20;;
7969;SDS011;4030;52.362;9.206;2022-08-18T03:45:33;3.75;;;3.45;;
7969;SDS011;4030;52.362;9.206;2022-08-18T03:47:59;3.50;;;3.20;;
7969;SDS011;4030;52.362;9.206;2022-08-18T03:50:27;4.60;;;3.42;;
7969;SDS011;4030;52.362;9.206;2022-08-18T03:52:53;3.80;;;3.50;;
7969;SDS011;4030;52.362;9.206;2022-08-18T03:55:19;3.45;;;3.20;;
7969;SDS011;4030;52.362;9.206;2022-08-18T03:57:45;3.70;;;3.40;;
7969;SDS011;4030;52.362;9.206;2022-08-18T04:00:11;3.97;;;3.40;;
7969;SDS011;4030;52.362;9.206;2022-08-18T04:02:38;3.90;;;3.60;;
7969;SDS011;4030;52.362;9.206;2022-08-18T04:05:04;3.60;;;3.15;;
7969;SDS011;4030;52.362;9.206;2022-08-18T04:07:31;3.90;;;3.60;;
7969;SDS011;4030;52.362;9.206;2022-08-18T04:09:58;3.50;;;3.22;;
7969;SDS011;4030;52.362;9.206;2022-08-18T04:12:23;3.70;;;3.40;;
7969;SDS011;4030;52.362;9.206;2022-08-18T04:14:49;3.38;;;3.08;;
7969;SDS011;4030;52.362;9.206;2022-08-18T04:17:16;3.40;;;3.10;;
7969;SDS011;4030;52.362;9.206;2022-08-18T04:19:51;3.45;;;3.15;;
7969;SDS011;4030;52.362;9.206;2022-08-18T04:22:18;3.50;;;3.20;;
7969;SDS011;4030;52.362;9.206;2022-08-18T04:24:44;3.53;;;3.22;;
7969;SDS011;4030;52.362;9.206;2022-08-18T04:27:10;3.58;;;3.28;;
7969;SDS011;4030;52.362;9.206;2022-08-18T04:29:36;3.30;;;3.00;;
7969;SDS011;4030;52.362;9.206;2022-08-18T04:32:02;3.40;;;3.10;;
7969;SDS011;4030;52.362;9.206;2022-08-18T04:34:29;3.22;;;3.00;;
7969;SDS011;4030;52.362;9.206;2022-08-18T04:36:57;4.30;;;3.25;;
7969;SDS011;4030;52.362;9.206;2022-08-18T04:39:23;3.70;;;3.40;;
7969;SDS011;4030;52.362;9.206;2022-08-18T04:41:50;3.10;;;2.90;;
7969;SDS011;4030;52.362;9.206;2022-08-18T04:44:16;3.63;;;3.33;;
7969;SDS011;4030;52.362;9.206;2022-08-18T04:46:44;3.70;;;3.40;;
7969;SDS011;4030;52.362;9.206;2022-08-18T04:49:13;3.40;;;3.10;;
7969;SDS011;4030;52.362;9.206;2022-08-18T04:51:43;3.10;;;2.88;;
7969;SDS011;4030;52.362;9.206;2022-08-18T04:54:32;3.78;;;3.38;;
7969;SDS011;4030;52.362;9.206;2022-08-18T04:57:09;3.90;;;3.50;;
7969;SDS011;4030;52.362;9.206;2022-08-18T04:59:38;3.50;;;3.20;;
7969;SDS011;4030;52.362;9.206;2022-08-18T05:02:06;4.20;;;3.55;;
7969;SDS011;4030;52.362;9.206;2022-08-18T05:04:36;3.60;;;3.30;;
7969;SDS011;4030;52.362;9.206;2022-08-18T05:07:04;2.95;;;2.72;;
7969;SDS011;4030;52.362;9.206;2022-08-18T05:09:33;3.40;;;3.10;;
7969;SDS011;4030;52.362;9.206;2022-08-18T05:12:00;3.45;;;3.15;;
7969;SDS011;4030;52.362;9.206;2022-08-18T05:14:28;3.40;;;3.10;;
7969;SDS011;4030;52.362;9.206;2022-08-18T05:16:56;3.60;;;3.30;;
7969;SDS011;4030;52.362;9.206;2022-08-18T05:19:24;3.42;;;3.13;;
7969;SDS011;4030;52.362;9.206;2022-08-18T05:21:51;3.50;;;3.20;;
7969;SDS011;4030;52.362;9.206;2022-08-18T05:24:19;3.97;;;3.20;;
7969;SDS011;4030;52.362;9.206;2022-08-18T05:26:46;4.05;;;3.47;;
7969;SDS011;4030;52.362;9.206;2022-08-18T05:29:13;3.38;;;3.08;;
7969;SDS011;4030;52.362;9.206;2022-08-18T05:31:40;3.30;;;3.00;;
7969;SDS011;4030;52.362;9.206;2022-08-18T05:34:06;3.53;;;3.22;;
7969;SDS011;4030;52.362;9.206;2022-08-18T05:36:44;3.47;;;3.20;;
7969;SDS011;4030;52.362;9.206;2022-08-18T05:39:27;3.67;;;3.38;;
7969;SDS011;4030;52.362;9.206;2022-08-18T05:44:53;3.47;;;3.17;;
7969;SDS011;4030;52.362;9.206;2022-08-18T05:47:30;3.90;;;3.50;;
7969;SDS011;4030;52.362;9.206;2022-08-18T05:49:57;3.70;;;3.40;;
7969;SDS011;4030;52.362;9.206;2022-08-18T05:55:38;3.75;;;3.17;;
7969;SDS011;4030;52.362;9.206;2022-08-18T05:58:36;3.10;;;2.80;;
7969;SDS011;4030;52.362;9.206;2022-08-18T06:01:12;3.83;;;3.53;;
7969;SDS011;4030;52.362;9.206;2022-08-18T06:03:49;4.15;;;3.38;;
7969;SDS011;4030;52.362;9.206;2022-08-18T06:06:21;4.43;;;3.30;;
7969;SDS011;4030;52.362;9.206;2022-08-18T06:08:58;3.63;;;3.30;;
7969;SDS011;4030;52.362;9.206;2022-08-18T06:11:27;3.40;;;3.10;;
7969;SDS011;4030;52.362;9.206;2022-08-18T06:13:53;3.50;;;3.20;;
7969;SDS011;4030;52.362;9.206;2022-08-18T06:16:37;4.13;;;3.72;;
7969;SDS011;4030;52.362;9.206;2022-08-18T06:25:12;4.40;;;4.00;;
7969;SDS011;4030;52.362;9.206;2022-08-18T06:27:54;4.53;;;4.20;;
7969;SDS011;4030;52.362;9.206;2022-08-18T06:35:51;5.18;;;4.68;;
7969;SDS011;4030;52.362;9.206;2022-08-18T06:38:54;5.85;;;5.35;;
7969;SDS011;4030;52.362;9.206;2022-08-18T06:43:59;5.75;;;5.32;;
7969;SDS011;4030;52.362;9.206;2022-08-18T06:49:44;6.18;;;5.68;;
7969;SDS011;4030;52.362;9.206;2022-08-18T06:55:14;6.95;;;6.35;;
7969;SDS011;4030;52.362;9.206;2022-08-18T06:57:53;7.15;;;6.55;;
7969;SDS011;4030;52.362;9.206;2022-08-18T07:00:24;6.95;;;6.35;;
7969;SDS011;4030;52.362;9.206;2022-08-18T07:06:01;7.40;;;6.80;;
7969;SDS011;4030;52.362;9.206;2022-08-18T07:08:34;7.18;;;6.57;;
7969;SDS011;4030;52.362;9.206;2022-08-18T07:13:50;7.05;;;6.45;;
7969;SDS011;4030;52.362;9.206;2022-08-18T07:16:23;7.10;;;6.53;;
7969;SDS011;4030;52.362;9.206;2022-08-18T07:18:52;7.78;;;7.18;;
7969;SDS011;4030;52.362;9.206;2022-08-18T07:21:26;7.20;;;6.70;;
7969;SDS011;4030;52.362;9.206;2022-08-18T07:24:00;7.15;;;6.63;;
7969;SDS011;4030;52.362;9.206;2022-08-18T07:29:35;6.97;;;6.38;;
7969;SDS011;4030;52.362;9.206;2022-08-18T07:34:39;6.80;;;6.20;;
7969;SDS011;4030;52.362;9.206;2022-08-18T07:37:21;7.13;;;6.63;;
7969;SDS011;4030;52.362;9.206;2022-08-18T07:40:09;6.53;;;6.03;;
7969;SDS011;4030;52.362;9.206;2022-08-18T07:43:21;6.53;;;6.03;;
7969;SDS011;4030;52.362;9.206;2022-08-18T07:45:55;6.30;;;5.80;;
7969;SDS011;4030;52.362;9.206;2022-08-18T07:48:34;5.20;;;4.80;;
7969;SDS011;4030;52.362;9.206;2022-08-18T07:51:06;5.18;;;4.78;;
7969;SDS011;4030;52.362;9.206;2022-08-18T07:56:46;6.55;;;6.05;;
7969;SDS011;4030;52.362;9.206;2022-08-18T07:59:30;6.60;;;6.10;;
7969;SDS011;4030;52.362;9.206;2022-08-18T08:08:00;6.97;;;6.43;;
7969;SDS011;4030;52.362;9.206;2022-08-18T08:10:42;7.32;;;6.82;;
7969;SDS011;4030;52.362;9.206;2022-08-18T08:13:23;7.80;;;7.00;;
7969;SDS011;4030;52.362;9.206;2022-08-18T08:16:22;7.18;;;6.68;;
7969;SDS011;4030;52.362;9.206;2022-08-18T08:19:23;7.20;;;6.70;;
7969;SDS011;4030;52.362;9.206;2022-08-18T08:22:04;7.35;;;6.68;;
7969;SDS011;4030;52.362;9.206;2022-08-18T08:27:38;7.53;;;6.93;;
7969;SDS011;4030;52.362;9.206;2022-08-18T08:30:24;7.55;;;6.95;;
7969;SDS011;4030;52.362;9.206;2022-08-18T08:33:08;7.72;;;7.13;;
7969;SDS011;4030;52.362;9.206;2022-08-18T08:35:50;8.13;;;7.50;;
7969;SDS011;4030;52.362;9.206;2022-08-18T08:38:37;8.82;;;8.20;;
7969;SDS011;4030;52.362;9.206;2022-08-18T08:41:32;8.38;;;7.68;;
7969;SDS011;4030;52.362;9.206;2022-08-18T08:44:08;7.97;;;7.38;;
7969;SDS011;4030;52.362;9.206;2022-08-18T08:49:24;8.45;;;7.85;;
7969;SDS011;4030;52.362;9.206;2022-08-18T08:52:00;8.73;;;8.13;;
7969;SDS011;4030;52.362;9.206;2022-08-18T08:54:37;8.32;;;7.72;;
7969;SDS011;4030;52.362;9.206;2022-08-18T08:57:13;8.75;;;8.10;;
7969;SDS011;4030;52.362;9.206;2022-08-18T08:59:43;9.45;;;8.75;;
7969;SDS011;4030;52.362;9.206;2022-08-18T09:02:21;8.60;;;8.00;;
7969;SDS011;4030;52.362;9.206;2022-08-18T09:04:54;8.85;;;8.18;;
7969;SDS011;4030;52.362;9.206;2022-08-18T09:07:40;9.55;;;8.75;;
7969;SDS011;4030;52.362;9.206;2022-08-18T09:22:32;9.07;;;8.38;;
7969;SDS011;4030;52.362;9.206;2022-08-18T09:25:31;8.27;;;7.57;;
7969;SDS011;4030;52.362;9.206;2022-08-18T09:28:16;8.02;;;7.43;;
7969;SDS011;4030;52.362;9.206;2022-08-18T09:30:53;8.32;;;7.63;;
7969;SDS011;4030;52.362;9.206;2022-08-18T09:33:47;8.05;;;7.45;;
7969;SDS011;4030;52.362;9.206;2022-08-18T09:39:35;7.55;;;6.95;;
7969;SDS011;4030;52.362;9.206;2022-08-18T09:42:37;7.15;;;6.65;;
7969;SDS011;4030;52.362;9.206;2022-08-18T09:45:38;6.70;;;6.20;;
7969;SDS011;4030;52.362;9.206;2022-08-18T09:53:33;6.28;;;5.78;;
7969;SDS011;4030;52.362;9.206;2022-08-18T09:56:11;6.05;;;5.63;;
7969;SDS011;4030;52.362;9.206;2022-08-18T09:58:50;6.00;;;5.60;;
7969;SDS011;4030;52.362;9.206;2022-08-18T10:06:40;5.95;;;5.45;;
7969;SDS011;4030;52.362;9.206;2022-08-18T10:11:45;5.65;;;5.25;;
7969;SDS011;4030;52.362;9.206;2022-08-18T10:23:47;5.70;;;5.20;;
7969;SDS011;4030;52.362;9.206;2022-08-18T10:34:36;5.50;;;5.00;;
7969;SDS011;4030;52.362;9.206;2022-08-18T10:37:22;5.07;;;4.75;;
7969;SDS011;4030;52.362;9.206;2022-08-18T10:39:56;5.07;;;4.68;;
7969;SDS011;4030;52.362;9.206;2022-08-18T10:42:34;5.55;;;5.05;;
7969;SDS011;4030;52.362;9.206;2022-08-18T10:45:34;4.97;;;4.60;;
7969;SDS011;4030;52.362;9.206;2022-08-18T10:48:18;5.40;;;5.00;;
7969;SDS011;4030;52.362;9.206;2022-08-18T10:50:51;4.93;;;4.53;;
7969;SDS011;4030;52.362;9.206;2022-08-18T10:56:49;5.18;;;4.68;;
7969;SDS011;4030;52.362;9.206;2022-08-18T11:04:50;5.05;;;4.55;;
7969;SDS011;4030;52.362;9.206;2022-08-18T11:07:18;4.65;;;4.30;;
7969;SDS011;4030;52.362;9.206;2022-08-18T11:09:53;4.90;;;4.50;;
7969;SDS011;4030;52.362;9.206;2022-08-18T11:24:07;4.93;;;4.53;;
7969;SDS011;4030;52.362;9.206;2022-08-18T11:26:44;5.00;;;4.60;;
7969;SDS011;4030;52.362;9.206;2022-08-18T11:29:33;4.78;;;4.38;;
7969;SDS011;4030;52.362;9.206;2022-08-18T11:35:00;4.50;;;4.20;;
7969;SDS011;4030;52.362;9.206;2022-08-18T11:40:51;4.40;;;4.10;;
7969;SDS011;4030;52.362;9.206;2022-08-18T11:50:57;4.20;;;3.90;;
7969;SDS011;4030;52.362;9.206;2022-08-18T11:56:13;4.00;;;3.70;;
7969;SDS011;4030;52.362;9.206;2022-08-18T11:59:05;4.00;;;3.70;;
7969;SDS011;4030;52.362;9.206;2022-08-18T12:01:33;4.03;;;3.53;;
7969;SDS011;4030;52.362;9.206;2022-08-18T12:06:38;3.33;;;3.13;;
7969;SDS011;4030;52.362;9.206;2022-08-18T12:09:26;3.75;;;3.45;;
7969;SDS011;4030;52.362;9.206;2022-08-18T12:12:02;4.20;;;3.80;;
7969;SDS011;4030;52.362;9.206;2022-08-18T12:17:30;3.75;;;3.42;;
7969;SDS011;4030;52.362;9.206;2022-08-18T12:19:56;3.90;;;3.60;;
7969;SDS011;4030;52.362;9.206;2022-08-18T12:22:24;4.20;;;3.85;;
7969;SDS011;4030;52.362;9.206;2022-08-18T12:24:54;4.05;;;3.75;;
7969;SDS011;4030;52.362;9.206;2022-08-18T12:27:24;4.03;;;3.67;;
7969;SDS011;4030;52.362;9.206;2022-08-18T12:29:52;3.80;;;3.40;;
7969;SDS011;4030;52.362;9.206;2022-08-18T12:32:21;3.97;;;3.67;;
7969;SDS011;4030;52.362;9.206;2022-08-18T12:34:49;4.07;;;3.67;;
7969;SDS011;4030;52.362;9.206;2022-08-18T12:37:16;3.78;;;3.47;;
7969;SDS011;4030;52.362;9.206;2022-08-18T12:39:45;4.15;;;3.53;;
7969;SDS011;4030;52.362;9.206;2022-08-18T12:42:11;4.00;;;3.53;;
7969;SDS011;4030;52.362;9.206;2022-08-18T12:44:37;3.78;;;3.47;;
7969;SDS011;4030;52.362;9.206;2022-08-18T12:47:06;3.58;;;3.28;;
7969;SDS011;4030;52.362;9.206;2022-08-18T12:49:49;3.80;;;3.40;;
7969;SDS011;4030;52.362;9.206;2022-08-18T12:52:16;3.80;;;3.50;;
7969;SDS011;4030;52.362;9.206;2022-08-18T12:54:44;3.90;;;3.58;;
7969;SDS011;4030;52.362;9.206;2022-08-18T12:57:24;3.50;;;3.20;;
7969;SDS011;4030;52.362;9.206;2022-08-18T12:59:51;3.90;;;3.58;;
7969;SDS011;4030;52.362;9.206;2022-08-18T13:02:19;3.45;;;3.25;;
7969;SDS011;4030;52.362;9.206;2022-08-18T13:04:45;3.75;;;3.28;;
7969;SDS011;4030;52.362;9.206;2022-08-18T13:07:11;3.42;;;3.13;;
7969;SDS011;4030;52.362;9.206;2022-08-18T13:09:39;3.50;;;3.20;;
7969;SDS011;4030;52.362;9.206;2022-08-18T13:12:06;3.70;;;3.40;;
7969;SDS011;4030;52.362;9.206;2022-08-18T13:14:33;3.38;;;3.08;;
7969;SDS011;4030;52.362;9.206;2022-08-18T13:16:59;3.38;;;3.08;;
7969;SDS011;4030;52.362;9.206;2022-08-18T13:19:25;3.80;;;3.40;;
7969;SDS011;4030;52.362;9.206;2022-08-18T13:21:51;3.67;;;3.33;;
7969;SDS011;4030;52.362;9.206;2022-08-18T13:24:17;3.25;;;2.95;;
7969;SDS011;4030;52.362;9.206;2022-08-18T13:26:43;3.63;;;3.33;;
7969;SDS011;4030;52.362;9.206;2022-08-18T13:29:12;4.25;;;3.22;;
7969;SDS011;4030;52.362;9.206;2022-08-18T13:31:41;3.78;;;3.47;;
7969;SDS011;4030;52.362;9.206;2022-08-18T13:34:08;3.28;;;2.97;;
7969;SDS011;4030;52.362;9.206;2022-08-18T13:36:33;3.33;;;3.03;;
7969;SDS011;4030;52.362;9.206;2022-08-18T13:39:15;3.22;;;2.92;;
7969;SDS011;4030;52.362;9.206;2022-08-18T13:41:44;2.75;;;2.55;;
7969;SDS011;4030;52.362;9.206;2022-08-18T13:44:13;3.45;;;2.83;;
7969;SDS011;4030;52.362;9.206;2022-08-18T13:46:42;3.28;;;2.97;;
7969;SDS011;4030;52.362;9.206;2022-08-18T13:49:12;2.90;;;2.70;;
7969;SDS011;4030;52.362;9.206;2022-08-18T13:51:40;3.10;;;2.80;;
7969;SDS011;4030;52.362;9.206;2022-08-18T13:54:08;3.00;;;2.80;;
7969;SDS011;4030;52.362;9.206;2022-08-18T13:56:40;2.80;;;2.60;;
7969;SDS011;4030;52.362;9.206;2022-08-18T13:59:06;2.58;;;2.38;;
7969;SDS011;4030;52.362;9.206;2022-08-18T14:01:32;2.88;;;2.50;;
7969;SDS011;4030;52.362;9.206;2022-08-18T14:04:00;2.60;;;2.40;;
7969;SDS011;4030;52.362;9.206;2022-08-18T14:06:25;3.42;;;2.53;;
7969;SDS011;4030;52.362;9.206;2022-08-18T14:08:51;2.40;;;2.20;;
7969;SDS011;4030;52.362;9.206;2022-08-18T14:11:18;2.40;;;2.20;;
7969;SDS011;4030;52.362;9.206;2022-08-18T14:13:51;2.42;;;2.20;;
7969;SDS011;4030;52.362;9.206;2022-08-18T14:16:18;2.47;;;2.00;;
7969;SDS011;4030;52.362;9.206;2022-08-18T14:18:45;2.30;;;1.90;;
7969;SDS011;4030;52.362;9.206;2022-08-18T14:21:33;2.58;;;2.15;;
7969;SDS011;4030;52.362;9.206;2022-08-18T14:24:24;2.40;;;2.20;;
7969;SDS011;4030;52.362;9.206;2022-08-18T14:27:08;2.10;;;1.90;;
7969;SDS011;4030;52.362;9.206;2022-08-18T14:29:34;3.83;;;2.17;;
7969;SDS011;4030;52.362;9.206;2022-08-18T14:31:59;2.10;;;1.90;;
7969;SDS011;4030;52.362;9.206;2022-08-18T14:34:25;2.35;;;1.80;;
7969;SDS011;4030;52.362;9.206;2022-08-18T14:36:51;2.05;;;1.88;;
7969;SDS011;4030;52.362;9.206;2022-08-18T14:39:16;1.92;;;1.80;;
7969;SDS011;4030;52.362;9.206;2022-08-18T14:41:42;2.53;;;2.00;;
7969;SDS011;4030;52.362;9.206;2022-08-18T14:44:08;2.28;;;1.67;;
7969;SDS011;4030;52.362;9.206;2022-08-18T14:46:37;1.60;;;1.50;;
7969;SDS011;4030;52.362;9.206;2022-08-18T14:49:03;2.38;;;2.00;;
7969;SDS011;4030;52.362;9.206;2022-08-18T14:51:29;2.10;;;1.90;;
7969;SDS011;4030;52.362;9.206;2022-08-18T14:53:55;1.92;;;1.73;;
7969;SDS011;4030;52.362;9.206;2022-08-18T14:56:21;2.17;;;1.80;;
7969;SDS011;4030;52.362;9.206;2022-08-18T14:58:47;1.92;;;1.70;;
7969;SDS011;4030;52.362;9.206;2022-08-18T15:01:13;2.03;;;1.67;;
7969;SDS011;4030;52.362;9.206;2022-08-18T15:03:39;1.65;;;1.55;;
7969;SDS011;4030;52.362;9.206;2022-08-18T15:06:06;1.45;;;1.35;;
7969;SDS011;4030;52.362;9.206;2022-08-18T15:08:33;2.47;;;1.70;;
7969;SDS011;4030;52.362;9.206;2022-08-18T15:11:01;1.50;;;1.40;;
7969;SDS011;4030;52.362;9.206;2022-08-18T15:13:30;2.10;;;1.58;;
7969;SDS011;4030;52.362;9.206;2022-08-18T15:15:57;2.83;;;1.65;;
7969;SDS011;4030;52.362;9.206;2022-08-18T15:18:23;1.70;;;1.52;;
7969;SDS011;4030;52.362;9.206;2022-08-18T15:20:49;1.80;;;1.70;;
7969;SDS011;4030;52.362;9.206;2022-08-18T15:23:34;3.42;;;1.73;;
7969;SDS011;4030;52.362;9.206;2022-08-18T15:26:23;2.70;;;1.70;;
7969;SDS011;4030;52.362;9.206;2022-08-18T15:28:50;2.85;;;1.60;;
7969;SDS011;4030;52.362;9.206;2022-08-18T15:31:16;2.20;;;1.70;;
7969;SDS011;4030;52.362;9.206;2022-08-18T15:33:41;2.15;;;1.60;;
7969;SDS011;4030;52.362;9.206;2022-08-18T15:36:07;2.22;;;1.60;;
7969;SDS011;4030;52.362;9.206;2022-08-18T15:38:34;2.00;;;1.70;;
7969;SDS011;4030;52.362;9.206;2022-08-18T15:40:59;1.92;;;1.60;;
7969;SDS011;4030;52.362;9.206;2022-08-18T15:43:27;1.63;;;1.50;;
7969;SDS011;4030;52.362;9.206;2022-08-18T15:45:56;1.90;;;1.50;;
7969;SDS011;4030;52.362;9.206;2022-08-18T15:48:23;2.20;;;1.92;;
7969;SDS011;4030;52.362;9.206;2022-08-18T15:50:51;1.90;;;1.70;;
7969;SDS011;4030;52.362;9.206;2022-08-18T15:53:18;3.03;;;1.83;;
7969;SDS011;4030;52.362;9.206;2022-08-18T15:55:48;2.10;;;1.65;;
7969;SDS011;4030;52.362;9.206;2022-08-18T15:58:14;1.85;;;1.75;;
7969;SDS011;4030;52.362;9.206;2022-08-18T16:00:40;2.33;;;1.80;;
7969;SDS011;4030;52.362;9.206;2022-08-18T16:03:10;2.33;;;1.77;;
7969;SDS011;4030;52.362;9.206;2022-08-18T16:05:39;2.15;;;1.77;;
7969;SDS011;4030;52.362;9.206;2022-08-18T16:08:12;2.92;;;1.80;;
7969;SDS011;4030;52.362;9.206;2022-08-18T16:10:38;2.47;;;1.77;;
7969;SDS011;4030;52.362;9.206;2022-08-18T16:13:05;1.92;;;1.60;;
7969;SDS011;4030;52.362;9.206;2022-08-18T16:15:34;2.22;;;1.85;;
7969;SDS011;4030;52.362;9.206;2022-08-18T16:18:03;2.17;;;1.83;;
7969;SDS011;4030;52.362;9.206;2022-08-18T16:20:31;3.35;;;2.03;;
7969;SDS011;4030;52.362;9.206;2022-08-18T16:22:58;2.65;;;1.90;;
7969;SDS011;4030;52.362;9.206;2022-08-18T16:25:24;2.63;;;1.70;;
7969;SDS011;4030;52.362;9.206;2022-08-18T16:27:50;2.15;;;1.88;;
7969;SDS011;4030;52.362;9.206;2022-08-18T16:30:19;2.92;;;1.73;;
7969;SDS011;4030;52.362;9.206;2022-08-18T16:32:49;3.47;;;1.88;;
7969;SDS011;4030;52.362;9.206;2022-08-18T16:35:15;1.80;;;1.70;;
7969;SDS011;4030;52.362;9.206;2022-08-18T16:37:42;2.30;;;1.88;;
7969;SDS011;4030;52.362;9.206;2022-08-18T16:40:10;1.98;;;1.73;;
7969;SDS011;4030;52.362;9.206;2022-08-18T16:42:38;1.85;;;1.70;;
7969;SDS011;4030;52.362;9.206;2022-08-18T16:45:04;2.35;;;1.80;;
7969;SDS011;4030;52.362;9.206;2022-08-18T16:47:32;2.88;;;1.90;;
7969;SDS011;4030;52.362;9.206;2022-08-18T16:50:09;2.90;;;1.90;;
7969;SDS011;4030;52.362;9.206;2022-08-18T16:52:41;3.67;;;1.85;;
7969;SDS011;4030;52.362;9.206;2022-08-18T16:55:07;2.63;;;1.88;;
7969;SDS011;4030;52.362;9.206;2022-08-18T16:57:37;2.97;;;1.92;;
7969;SDS011;4030;52.362;9.206;2022-08-18T17:00:23;1.85;;;1.70;;
7969;SDS011;4030;52.362;9.206;2022-08-18T17:03:08;1.80;;;1.63;;
7969;SDS011;4030;52.362;9.206;2022-08-18T17:06:00;2.97;;;1.92;;
7969;SDS011;4030;52.362;9.206;2022-08-18T17:08:27;2.47;;;1.80;;
7969;SDS011;4030;52.362;9.206;2022-08-18T17:10:58;2.38;;;1.70;;
7969;SDS011;4030;52.362;9.206;2022-08-18T17:13:26;2.05;;;1.80;;
7969;SDS011;4030;52.362;9.206;2022-08-18T17:15:52;1.75;;;1.55;;
7969;SDS011;4030;52.362;9.206;2022-08-18T17:18:17;1.58;;;1.48;;
7969;SDS011;4030;52.362;9.206;2022-08-18T17:20:44;2.05;;;1.70;;
7969;SDS011;4030;52.362;9.206;2022-08-18T17:23:10;1.83;;;1.60;;
7969;SDS011;4030;52.362;9.206;2022-08-18T17:25:36;3.45;;;2.00;;
7969;SDS011;4030;52.362;9.206;2022-08-18T17:28:02;3.03;;;1.85;;
7969;SDS011;4030;52.362;9.206;2022-08-18T17:30:29;2.20;;;1.85;;
7969;SDS011;4030;52.362;9.206;2022-08-18T17:35:53;2.25;;;1.90;;
7969;SDS011;4030;52.362;9.206;2022-08-18T17:38:44;1.63;;;1.50;;
7969;SDS011;4030;52.362;9.206;2022-08-18T17:41:16;2.70;;;1.88;;
7969;SDS011;4030;52.362;9.206;2022-08-18T17:43:44;1.88;;;1.65;;
7969;SDS011;4030;52.362;9.206;2022-08-18T17:46:20;2.28;;;2.03;;
7969;SDS011;4030;52.362;9.206;2022-08-18T17:49:00;2.00;;;1.80;;
7969;SDS011;4030;52.362;9.206;2022-08-18T17:51:36;3.28;;;1.75;;
7969;SDS011;4030;52.362;9.206;2022-08-18T17:54:30;3.28;;;1.70;;
7969;SDS011;4030;52.362;9.206;2022-08-18T17:57:07;2.67;;;1.83;;
7969;SDS011;4030;52.362;9.206;2022-08-18T17:59:53;3.38;;;1.70;;
7969;SDS011;4030;52.362;9.206;2022-08-18T18:02:37;2.10;;;1.70;;
7969;SDS011;4030;52.362;9.206;2022-08-18T18:05:10;2.88;;;1.90;;
7969;SDS011;4030;52.362;9.206;2022-08-18T18:15:44;2.03;;;1.70;;
7969;SDS011;4030;52.362;9.206;2022-08-18T18:21:17;2.28;;;1.60;;